createdAt,value
2017-10-23T00:00:29.547Z,10.65
2017-10-23T00:01:29.519Z,10.65
2017-10-23T00:02:29.497Z,10.75
2017-10-23T00:03:29.471Z,10.69
2017-10-23T00:04:29.440Z,10.69
2017-10-23T00:05:29.420Z,10.69
2017-10-23T00:06:29.392Z,10.58
2017-10-23T00:07:29.360Z,10.47
2017-10-23T00:08:29.338Z,10.57
2017-10-23T00:09:29.315Z,10.52
2017-10-23T00:10:29.283Z,10.52
2017-10-23T00:11:29.262Z,10.52
2017-10-23T00:12:29.239Z,10.58
2017-10-23T00:13:29.211Z,10.54
2017-10-23T00:14:29.182Z,10.46
2017-10-23T00:15:29.155Z,10.54
2017-10-23T00:16:29.120Z,10.46
2017-10-23T00:17:29.100Z,10.57
2017-10-23T00:18:29.072Z,10.51
2017-10-23T00:19:29.050Z,10.51
2017-10-23T00:20:29.025Z,10.52
2017-10-23T00:21:29.001Z,10.49
2017-10-23T00:22:28.972Z,10.55
2017-10-23T00:23:28.941Z,10.43
2017-10-23T00:24:28.925Z,10.43
2017-10-23T00:25:28.891Z,10.42
2017-10-23T00:26:28.863Z,10.44
2017-10-23T00:27:28.838Z,10.36
2017-10-23T00:28:28.817Z,10.36
2017-10-23T00:29:28.785Z,10.49
2017-10-23T00:30:28.761Z,10.46
2017-10-23T00:31:28.744Z,10.42
2017-10-23T00:32:28.700Z,10.46
2017-10-23T00:33:28.693Z,10.55
2017-10-23T00:34:28.909Z,10.58
2017-10-23T00:35:28.625Z,10.51
2017-10-23T00:36:28.600Z,10.52
2017-10-23T00:37:28.581Z,10.47
2017-10-23T00:38:28.548Z,10.60
2017-10-23T00:39:29.029Z,10.57
2017-10-23T00:40:28.504Z,10.52
2017-10-23T00:41:28.473Z,10.43
2017-10-23T00:42:28.440Z,10.44
2017-10-23T00:43:28.419Z,10.36
2017-10-23T00:44:28.392Z,10.39
2017-10-23T00:45:28.370Z,10.35
2017-10-23T00:46:28.344Z,10.29
2017-10-23T00:47:28.313Z,10.31
2017-10-23T00:48:28.284Z,10.29
2017-10-23T00:49:28.256Z,10.28
2017-10-23T00:50:28.231Z,10.36
2017-10-23T00:51:28.208Z,10.26
2017-10-23T00:52:28.184Z,10.34
2017-10-23T00:53:28.152Z,10.38
2017-10-23T00:54:28.128Z,10.43
2017-10-23T00:55:28.107Z,10.38
2017-10-23T00:56:28.078Z,10.34
2017-10-23T00:57:28.049Z,10.34
2017-10-23T00:58:28.027Z,10.36
2017-10-23T00:59:27.997Z,10.36
2017-10-23T01:00:27.972Z,10.39
2017-10-23T01:01:27.939Z,10.28
2017-10-23T01:02:27.914Z,10.36
2017-10-23T01:03:28.143Z,10.22
2017-10-23T01:04:27.866Z,10.28
2017-10-23T01:05:27.838Z,10.25
2017-10-23T01:06:27.807Z,10.22
2017-10-23T01:07:27.780Z,10.17
2017-10-23T01:08:27.765Z,10.17
2017-10-23T01:09:28.081Z,10.20
2017-10-23T01:10:27.714Z,10.18
2017-10-23T01:11:27.686Z,10.31
2017-10-23T01:12:27.645Z,10.26
2017-10-23T01:13:27.624Z,10.24
2017-10-23T01:14:27.611Z,10.25
2017-10-23T01:15:27.571Z,10.18
2017-10-23T01:16:27.548Z,10.22
2017-10-23T01:17:27.521Z,10.26
2017-10-23T01:18:27.489Z,10.28
2017-10-23T01:19:27.461Z,10.34
2017-10-23T01:20:27.439Z,10.34
2017-10-23T01:21:27.416Z,10.26
2017-10-23T01:22:27.392Z,10.28
2017-10-23T01:23:27.366Z,10.16
2017-10-23T01:24:27.339Z,10.22
2017-10-23T01:25:27.312Z,10.25
2017-10-23T01:26:27.285Z,10.11
2017-10-23T01:27:27.254Z,10.20
2017-10-23T01:28:27.225Z,10.18
2017-10-23T01:29:27.203Z,10.16
2017-10-23T01:30:27.176Z,10.11
2017-10-23T01:31:27.152Z,10.17
2017-10-23T01:32:27.123Z,10.11
2017-10-23T01:33:27.400Z,10.26
2017-10-23T01:34:27.074Z,10.24
2017-10-23T01:35:27.039Z,10.16
2017-10-23T01:36:27.021Z,10.25
2017-10-23T01:37:26.996Z,10.18
2017-10-23T01:38:26.958Z,10.16
2017-10-23T01:39:27.192Z,10.18
2017-10-23T01:40:26.913Z,10.13
2017-10-23T01:41:26.889Z,10.16
2017-10-23T01:42:26.856Z,10.16
2017-10-23T01:43:26.835Z,10.18
2017-10-23T01:44:26.811Z,10.11
2017-10-23T01:45:26.775Z,10.09
2017-10-23T01:46:26.754Z,10.10
2017-10-23T01:47:26.731Z,10.09
2017-10-23T01:48:26.701Z,10.04
2017-10-23T01:49:26.673Z,10.04
2017-10-23T01:50:26.644Z,10.11
2017-10-23T01:51:26.615Z,10.16
2017-10-23T01:52:26.601Z,10.11
2017-10-23T01:53:26.565Z,10.10
2017-10-23T01:54:26.539Z,10.09
2017-10-23T01:55:26.512Z,10.11
2017-10-23T01:56:26.745Z,10.09
2017-10-23T01:57:26.462Z,10.02
2017-10-23T01:58:26.446Z,10.04
2017-10-23T01:59:26.414Z,10.06
2017-10-23T02:00:26.377Z,10.10
2017-10-23T02:01:26.357Z,10.04
2017-10-23T02:02:26.330Z,10.11
2017-10-23T02:03:26.306Z,10.10
2017-10-23T02:04:26.279Z,10.07
2017-10-23T02:05:26.251Z,10.17
2017-10-23T02:06:26.221Z,10.20
2017-10-23T02:07:26.195Z,10.20
2017-10-23T02:08:26.168Z,10.14
2017-10-23T02:09:26.145Z,10.17
2017-10-23T02:10:26.111Z,10.17
2017-10-23T02:11:26.090Z,10.20
2017-10-23T02:12:26.080Z,10.18
2017-10-23T02:13:26.040Z,10.17
2017-10-23T02:14:26.315Z,10.28
2017-10-23T02:15:25.983Z,10.28
2017-10-23T02:16:25.959Z,10.31
2017-10-23T02:17:25.928Z,10.29
2017-10-23T02:18:25.905Z,10.34
2017-10-23T02:19:25.883Z,10.29
2017-10-23T02:20:25.852Z,10.26
2017-10-23T02:21:25.841Z,10.32
2017-10-23T02:22:25.799Z,10.28
2017-10-23T02:23:25.773Z,10.26
2017-10-23T02:24:25.747Z,10.29
2017-10-23T02:25:25.717Z,10.38
2017-10-23T02:26:25.696Z,10.35
2017-10-23T02:27:25.665Z,10.26
2017-10-23T02:28:25.642Z,10.25
2017-10-23T02:29:25.624Z,10.32
2017-10-23T02:30:25.593Z,10.28
2017-10-23T02:31:25.567Z,10.14
2017-10-23T02:32:25.539Z,10.22
2017-10-23T02:33:25.512Z,10.31
2017-10-23T02:34:25.481Z,10.16
2017-10-23T02:35:25.460Z,10.25
2017-10-23T02:36:25.428Z,10.28
2017-10-23T02:37:25.403Z,10.13
2017-10-23T02:38:25.626Z,10.16
2017-10-23T02:39:25.359Z,10.20
2017-10-23T02:40:25.347Z,10.14
2017-10-23T02:41:25.299Z,10.29
2017-10-23T02:42:25.264Z,10.34
2017-10-23T02:43:25.237Z,10.25
2017-10-23T02:44:25.219Z,10.36
2017-10-23T02:45:25.190Z,10.39
2017-10-23T02:46:25.165Z,10.35
2017-10-23T02:47:25.148Z,10.36
2017-10-23T02:48:25.109Z,10.43
2017-10-23T02:49:25.088Z,10.32
2017-10-23T02:50:25.062Z,10.49
2017-10-23T02:51:25.040Z,10.35
2017-10-23T02:52:25.007Z,10.38
2017-10-23T02:53:24.975Z,10.44
2017-10-23T02:54:24.946Z,10.44
2017-10-23T02:55:24.927Z,10.47
2017-10-23T02:56:24.898Z,10.44
2017-10-23T02:57:24.881Z,10.52
2017-10-23T02:58:24.846Z,10.44
2017-10-23T02:59:24.815Z,10.47
2017-10-23T03:00:24.795Z,10.43
2017-10-23T03:01:24.772Z,10.51
2017-10-23T03:02:24.750Z,10.57
2017-10-23T03:03:24.720Z,10.47
2017-10-23T03:04:24.687Z,10.43
2017-10-23T03:05:24.667Z,10.43
2017-10-23T03:06:24.639Z,10.47
2017-10-23T03:07:24.607Z,10.42
2017-10-23T03:08:24.833Z,10.46
2017-10-23T03:09:24.551Z,10.35
2017-10-23T03:10:24.524Z,10.42
2017-10-23T03:11:24.512Z,10.42
2017-10-23T03:12:24.477Z,10.34
2017-10-23T03:13:24.450Z,10.34
2017-10-23T03:14:24.419Z,10.49
2017-10-23T03:15:24.400Z,10.39
2017-10-23T03:16:24.376Z,10.38
2017-10-23T03:17:24.344Z,10.29
2017-10-23T03:18:24.329Z,10.31
2017-10-23T03:19:24.600Z,10.35
2017-10-23T03:20:24.261Z,10.24
2017-10-23T03:21:24.245Z,10.35
2017-10-23T03:22:24.221Z,10.34
2017-10-23T03:23:24.191Z,10.38
2017-10-23T03:24:24.159Z,10.36
2017-10-23T03:25:24.134Z,10.31
2017-10-23T03:26:24.102Z,10.46
2017-10-23T03:27:24.080Z,10.46
2017-10-23T03:28:24.067Z,10.35
2017-10-23T03:29:24.034Z,10.44
2017-10-23T03:30:24.003Z,10.38
2017-10-23T03:31:23.976Z,10.42
2017-10-23T03:32:23.957Z,10.43
2017-10-23T03:33:23.923Z,10.34
2017-10-23T03:34:23.901Z,10.35
2017-10-23T03:35:23.871Z,10.34
2017-10-23T03:36:23.842Z,10.36
2017-10-23T03:37:23.834Z,10.46
2017-10-23T03:38:23.797Z,10.29
2017-10-23T03:39:23.767Z,10.34
2017-10-23T03:40:23.734Z,10.31
2017-10-23T03:41:23.710Z,10.39
2017-10-23T03:42:23.938Z,10.36
2017-10-23T03:43:23.661Z,10.32
2017-10-23T03:44:23.633Z,10.42
2017-10-23T03:45:23.608Z,10.43
2017-10-23T03:46:23.587Z,10.52
2017-10-23T03:47:23.550Z,10.43
2017-10-23T03:48:23.786Z,10.51
2017-10-23T03:49:23.508Z,10.47
2017-10-23T03:50:23.480Z,10.49
2017-10-23T03:51:23.450Z,10.43
2017-10-23T03:52:23.419Z,10.55
2017-10-23T03:53:23.397Z,10.57
2017-10-23T03:54:23.622Z,10.55
2017-10-23T03:55:23.347Z,10.47
2017-10-23T03:56:23.315Z,10.52
2017-10-23T03:57:23.289Z,10.44
2017-10-23T03:58:23.266Z,10.46
2017-10-23T03:59:23.233Z,10.54
2017-10-23T04:00:23.510Z,10.51
2017-10-23T04:01:23.189Z,10.46
2017-10-23T04:02:23.155Z,10.42
2017-10-23T04:03:23.128Z,10.47
2017-10-23T04:04:23.108Z,10.44
2017-10-23T04:05:23.087Z,10.55
2017-10-23T04:06:23.404Z,10.52
2017-10-23T04:07:23.032Z,10.62
2017-10-23T04:08:22.995Z,10.58
2017-10-23T04:09:22.972Z,10.57
2017-10-23T04:10:22.956Z,10.52
2017-10-23T04:11:22.925Z,10.63
2017-10-23T04:12:23.140Z,10.65
2017-10-23T04:13:22.872Z,10.70
2017-10-23T04:14:22.837Z,10.62
2017-10-23T04:15:22.814Z,10.68
2017-10-23T04:16:22.789Z,10.69
2017-10-23T04:17:22.772Z,10.69
2017-10-23T04:18:22.741Z,10.68
2017-10-23T04:19:22.714Z,10.72
2017-10-23T04:20:22.691Z,10.76
2017-10-23T04:21:22.659Z,10.86
2017-10-23T04:22:22.635Z,10.84
2017-10-23T04:23:22.609Z,10.75
2017-10-23T04:24:22.588Z,10.84
2017-10-23T04:25:22.550Z,10.76
2017-10-23T04:26:22.529Z,10.80
2017-10-23T04:27:22.510Z,10.72
2017-10-23T04:28:22.472Z,10.80
2017-10-23T04:29:22.445Z,10.80
2017-10-23T04:30:22.434Z,10.83
2017-10-23T04:31:22.394Z,10.84
2017-10-23T04:32:22.377Z,10.84
2017-10-23T04:33:22.350Z,10.80
2017-10-23T04:34:22.318Z,10.83
2017-10-23T04:35:22.289Z,10.84
2017-10-23T04:36:22.270Z,10.84
2017-10-23T04:37:22.238Z,10.91
2017-10-23T04:38:22.219Z,10.91
2017-10-23T04:39:22.190Z,10.90
2017-10-23T04:40:22.157Z,10.90
2017-10-23T04:41:22.136Z,10.88
2017-10-23T04:42:22.112Z,10.87
2017-10-23T04:43:22.089Z,10.90
2017-10-23T04:44:22.061Z,10.87
2017-10-23T04:45:22.027Z,10.90
2017-10-23T04:46:22.001Z,10.94
2017-10-23T04:47:21.979Z,10.95
2017-10-23T04:48:21.953Z,10.91
2017-10-23T04:49:21.926Z,10.93
2017-10-23T04:50:21.901Z,10.94
2017-10-23T04:51:21.872Z,11.01
2017-10-23T04:52:21.844Z,10.87
2017-10-23T04:53:21.827Z,10.99
2017-10-23T04:54:21.795Z,10.99
2017-10-23T04:55:21.770Z,11.01
2017-10-23T04:56:21.738Z,10.93
2017-10-23T04:57:21.718Z,10.95
2017-10-23T04:58:21.690Z,11.02
2017-10-23T04:59:21.671Z,10.90
2017-10-23T05:00:21.647Z,10.98
2017-10-23T05:01:21.611Z,10.95
2017-10-23T05:02:21.579Z,10.99
2017-10-23T05:03:21.555Z,11.11
2017-10-23T05:04:21.540Z,11.01
2017-10-23T05:05:21.508Z,11.01
2017-10-23T05:06:21.474Z,11.01
2017-10-23T05:07:21.456Z,11.08
2017-10-23T05:08:21.433Z,11.03
2017-10-23T05:09:21.400Z,11.17
2017-10-23T05:10:21.729Z,11.12
2017-10-23T05:11:21.357Z,11.11
2017-10-23T05:12:21.321Z,11.06
2017-10-23T05:13:21.292Z,11.12
2017-10-23T05:14:21.273Z,11.06
2017-10-23T05:15:21.242Z,11.12
2017-10-23T05:16:21.223Z,11.09
2017-10-23T05:17:21.191Z,11.12
2017-10-23T05:18:21.167Z,11.13
2017-10-23T05:19:21.148Z,11.11
2017-10-23T05:20:21.113Z,11.11
2017-10-23T05:21:21.088Z,11.13
2017-10-23T05:22:21.068Z,11.09
2017-10-23T05:23:21.046Z,11.13
2017-10-23T05:24:21.009Z,11.19
2017-10-23T05:25:20.988Z,11.09
2017-10-23T05:26:20.954Z,11.20
2017-10-23T05:27:20.927Z,11.19
2017-10-23T05:28:20.913Z,11.17
2017-10-23T05:29:20.882Z,11.28
2017-10-23T05:30:20.850Z,11.21
2017-10-23T05:31:20.828Z,11.28
2017-10-23T05:32:20.804Z,11.27
2017-10-23T05:33:20.818Z,11.27
2017-10-23T05:34:20.758Z,11.27
2017-10-23T05:35:20.737Z,11.30
2017-10-23T05:36:20.708Z,11.20
2017-10-23T05:37:20.671Z,11.16
2017-10-23T05:38:20.652Z,11.20
2017-10-23T05:39:20.632Z,11.31
2017-10-23T05:40:20.847Z,11.27
2017-10-23T05:41:20.565Z,11.24
2017-10-23T05:42:20.547Z,11.30
2017-10-23T05:43:20.517Z,11.21
2017-10-23T05:44:20.493Z,11.23
2017-10-23T05:45:20.477Z,11.26
2017-10-23T05:46:20.441Z,11.27
2017-10-23T05:47:20.414Z,11.27
2017-10-23T05:48:20.395Z,11.23
2017-10-23T05:49:20.362Z,11.26
2017-10-23T05:50:20.341Z,11.26
2017-10-23T05:51:20.560Z,11.27
2017-10-23T05:52:20.281Z,11.33
2017-10-23T05:53:20.259Z,11.28
2017-10-23T05:54:20.234Z,11.26
2017-10-23T05:55:20.209Z,11.28
2017-10-23T05:56:20.178Z,11.27
2017-10-23T05:57:20.148Z,11.28
2017-10-23T05:58:20.126Z,11.30
2017-10-23T05:59:20.100Z,11.31
2017-10-23T06:00:20.076Z,11.41
2017-10-23T06:01:20.050Z,11.36
2017-10-23T06:02:20.025Z,11.39
2017-10-23T06:03:19.993Z,11.46
2017-10-23T06:04:19.986Z,11.41
2017-10-23T06:05:19.956Z,11.41
2017-10-23T06:06:19.921Z,11.45
2017-10-23T06:07:19.902Z,11.53
2017-10-23T06:08:19.864Z,11.42
2017-10-23T06:09:20.092Z,11.48
2017-10-23T06:10:19.815Z,11.49
2017-10-23T06:11:19.797Z,11.38
2017-10-23T06:12:19.766Z,11.48
2017-10-23T06:13:19.736Z,11.51
2017-10-23T06:14:19.717Z,11.53
2017-10-23T06:15:19.687Z,11.60
2017-10-23T06:16:19.669Z,11.54
2017-10-23T06:17:19.641Z,11.57
2017-10-23T06:18:19.609Z,11.51
2017-10-23T06:19:19.583Z,11.54
2017-10-23T06:20:19.560Z,11.49
2017-10-23T06:21:19.539Z,11.60
2017-10-23T06:22:19.515Z,11.60
2017-10-23T06:23:19.479Z,11.53
2017-10-23T06:24:19.456Z,11.57
2017-10-23T06:25:19.428Z,11.53
2017-10-23T06:26:19.411Z,11.56
2017-10-23T06:27:19.380Z,11.49
2017-10-23T06:28:19.350Z,11.56
2017-10-23T06:29:19.323Z,11.64
2017-10-23T06:30:19.324Z,11.56
2017-10-23T06:31:19.272Z,11.60
2017-10-23T06:32:19.247Z,11.57
2017-10-23T06:33:19.224Z,11.54
2017-10-23T06:34:19.198Z,11.57
2017-10-23T06:35:19.170Z,11.67
2017-10-23T06:36:19.154Z,11.56
2017-10-23T06:37:19.121Z,11.57
2017-10-23T06:38:19.097Z,11.60
2017-10-23T06:39:19.073Z,11.70
2017-10-23T06:40:19.037Z,11.60
2017-10-23T06:41:19.012Z,11.74
2017-10-23T06:42:18.991Z,11.74
2017-10-23T06:43:18.969Z,11.72
2017-10-23T06:44:18.935Z,11.75
2017-10-23T06:45:18.913Z,11.72
2017-10-23T06:46:18.883Z,11.70
2017-10-23T06:47:18.858Z,11.75
2017-10-23T06:48:18.842Z,11.77
2017-10-23T06:49:18.815Z,11.75
2017-10-23T06:50:18.782Z,11.79
2017-10-23T06:51:18.764Z,11.81
2017-10-23T06:52:18.735Z,11.85
2017-10-23T06:53:18.714Z,11.81
2017-10-23T06:54:18.686Z,11.79
2017-10-23T06:55:18.656Z,11.81
2017-10-23T06:56:18.881Z,11.85
2017-10-23T06:57:18.601Z,11.88
2017-10-23T06:58:18.596Z,11.79
2017-10-23T06:59:18.559Z,11.84
2017-10-23T07:00:18.540Z,11.84
2017-10-23T07:01:18.503Z,11.85
2017-10-23T07:02:18.481Z,11.90
2017-10-23T07:03:18.458Z,11.79
2017-10-23T07:04:18.438Z,11.82
2017-10-23T07:05:18.410Z,11.85
2017-10-23T07:06:18.376Z,11.85
2017-10-23T07:07:18.349Z,11.79
2017-10-23T07:08:18.331Z,11.85
2017-10-23T07:09:18.301Z,11.74
2017-10-23T07:10:18.272Z,11.87
2017-10-23T07:11:18.254Z,11.90
2017-10-23T07:12:18.219Z,11.81
2017-10-23T07:13:18.203Z,11.85
2017-10-23T07:14:18.176Z,11.90
2017-10-23T07:15:18.150Z,11.79
2017-10-23T07:16:18.116Z,11.84
2017-10-23T07:17:18.091Z,11.78
2017-10-23T07:18:18.068Z,11.82
2017-10-23T07:19:18.054Z,11.77
2017-10-23T07:20:18.023Z,11.78
2017-10-23T07:21:17.999Z,11.81
2017-10-23T07:22:17.970Z,11.79
2017-10-23T07:23:17.949Z,11.77
2017-10-23T07:24:17.914Z,11.78
2017-10-23T07:25:17.890Z,11.78
2017-10-23T07:26:17.865Z,11.75
2017-10-23T07:27:17.842Z,11.78
2017-10-23T07:28:17.820Z,11.85
2017-10-23T07:29:17.794Z,11.81
2017-10-23T07:30:17.766Z,11.78
2017-10-23T07:31:17.766Z,11.74
2017-10-23T07:32:17.722Z,11.77
2017-10-23T07:33:17.703Z,11.75
2017-10-23T07:34:17.666Z,11.75
2017-10-23T07:35:17.647Z,11.72
2017-10-23T07:36:17.608Z,11.81
2017-10-23T07:37:17.591Z,11.79
2017-10-23T07:38:17.564Z,11.77
2017-10-23T07:39:17.536Z,11.78
2017-10-23T07:40:17.514Z,11.75
2017-10-23T07:41:17.485Z,11.74
2017-10-23T07:42:17.458Z,11.74
2017-10-23T07:43:17.442Z,11.84
2017-10-23T07:44:17.412Z,11.79
2017-10-23T07:45:17.390Z,11.69
2017-10-23T07:46:17.355Z,11.81
2017-10-23T07:47:17.325Z,11.67
2017-10-23T07:48:17.306Z,11.79
2017-10-23T07:49:17.536Z,11.70
2017-10-23T07:50:17.258Z,11.70
2017-10-23T07:51:17.235Z,11.67
2017-10-23T07:52:17.206Z,11.77
2017-10-23T07:53:17.177Z,11.81
2017-10-23T07:54:17.150Z,11.70
2017-10-23T07:55:17.130Z,11.69
2017-10-23T07:56:17.105Z,11.81
2017-10-23T07:57:17.079Z,11.79
2017-10-23T07:58:17.045Z,11.85
2017-10-23T07:59:17.030Z,11.64
2017-10-23T08:00:17.003Z,11.70
2017-10-23T08:01:16.982Z,11.78
2017-10-23T08:02:16.944Z,11.84
2017-10-23T08:03:16.924Z,11.77
2017-10-23T08:04:16.909Z,11.82
2017-10-23T08:05:16.870Z,11.88
2017-10-23T08:06:16.849Z,11.82
2017-10-23T08:07:16.825Z,11.82
2017-10-23T08:08:16.806Z,11.85
2017-10-23T08:09:16.777Z,11.85
2017-10-23T08:10:16.756Z,11.82
2017-10-23T08:11:16.723Z,11.82
2017-10-23T08:12:16.690Z,11.81
2017-10-23T08:13:16.672Z,11.79
2017-10-23T08:14:16.644Z,11.81
2017-10-23T08:15:16.616Z,11.79
2017-10-23T08:16:16.597Z,11.85
2017-10-23T08:17:16.575Z,11.85
2017-10-23T08:18:16.540Z,11.84
2017-10-23T08:19:16.515Z,11.79
2017-10-23T08:20:16.493Z,11.97
2017-10-23T08:21:16.465Z,11.82
2017-10-23T08:22:16.442Z,11.90
2017-10-23T08:23:16.421Z,11.81
2017-10-23T08:24:16.393Z,11.82
2017-10-23T08:25:16.369Z,11.81
2017-10-23T08:26:16.340Z,11.87
2017-10-23T08:27:16.318Z,11.82
2017-10-23T08:28:16.290Z,11.81
2017-10-23T08:29:16.260Z,11.85
2017-10-23T08:30:16.237Z,11.82
2017-10-23T08:31:16.212Z,11.77
2017-10-23T08:32:16.185Z,11.82
2017-10-23T08:33:16.162Z,11.79
2017-10-23T08:34:16.139Z,11.79
2017-10-23T08:35:16.117Z,11.77
2017-10-23T08:36:16.089Z,11.81
2017-10-23T08:37:16.063Z,11.77
2017-10-23T08:38:16.035Z,11.77
2017-10-23T08:39:16.012Z,11.85
2017-10-23T08:40:15.982Z,11.78
2017-10-23T08:41:15.953Z,11.75
2017-10-23T08:42:15.937Z,11.79
2017-10-23T08:43:15.910Z,11.78
2017-10-23T08:44:15.878Z,11.82
2017-10-23T08:45:15.855Z,11.81
2017-10-23T08:46:15.831Z,11.82
2017-10-23T08:47:15.802Z,11.87
2017-10-23T08:48:15.785Z,11.90
2017-10-23T08:49:15.753Z,11.88
2017-10-23T08:50:15.725Z,11.85
2017-10-23T08:51:15.704Z,11.84
2017-10-23T08:52:15.677Z,11.79
2017-10-23T08:53:15.653Z,11.85
2017-10-23T08:54:15.633Z,11.87
2017-10-23T08:55:15.599Z,11.88
2017-10-23T08:56:15.577Z,11.96
2017-10-23T08:57:15.549Z,11.94
2017-10-23T08:58:15.525Z,11.97
2017-10-23T08:59:15.498Z,11.94
2017-10-23T09:00:15.473Z,11.87
2017-10-23T09:01:15.443Z,11.93
2017-10-23T09:02:15.424Z,11.94
2017-10-23T09:03:15.392Z,12.05
2017-10-23T09:04:15.370Z,12.03
2017-10-23T09:05:15.349Z,12.03
2017-10-23T09:06:15.319Z,12.01
2017-10-23T09:07:15.296Z,12.03
2017-10-23T09:08:15.273Z,12.07
2017-10-23T09:09:15.247Z,12.05
2017-10-23T09:10:15.222Z,12.01
2017-10-23T09:11:15.202Z,12.05
2017-10-23T09:12:15.170Z,12.04
2017-10-23T09:13:15.142Z,12.01
2017-10-23T09:14:15.121Z,12.07
2017-10-23T09:15:15.097Z,11.90
2017-10-23T09:16:15.063Z,11.85
2017-10-23T09:17:15.038Z,11.90
2017-10-23T09:18:15.019Z,11.87
2017-10-23T09:19:14.992Z,11.98
2017-10-23T09:20:14.970Z,11.98
2017-10-23T09:21:14.947Z,11.87
2017-10-23T09:22:14.915Z,12.03
2017-10-23T09:23:14.892Z,11.96
2017-10-23T09:24:14.865Z,11.84
2017-10-23T09:25:14.844Z,11.85
2017-10-23T09:26:14.817Z,11.87
2017-10-23T09:27:14.797Z,11.84
2017-10-23T09:28:14.766Z,11.79
2017-10-23T09:29:14.745Z,11.78
2017-10-23T09:30:14.709Z,11.77
2017-10-23T09:31:14.694Z,11.81
2017-10-23T09:32:14.667Z,11.79
2017-10-23T09:33:14.644Z,11.77
2017-10-23T09:34:14.621Z,11.81
2017-10-23T09:35:14.587Z,11.72
2017-10-23T09:36:14.687Z,11.74
2017-10-23T09:37:14.534Z,11.67
2017-10-23T09:38:14.510Z,11.72
2017-10-23T09:39:14.484Z,11.82
2017-10-23T09:40:14.459Z,11.74
2017-10-23T09:41:14.435Z,11.70
2017-10-23T09:42:14.413Z,11.74
2017-10-23T09:43:14.388Z,11.72
2017-10-23T09:44:14.360Z,11.78
2017-10-23T09:45:14.340Z,11.78
2017-10-23T09:46:14.311Z,11.78
2017-10-23T09:47:14.281Z,11.90
2017-10-23T09:48:14.271Z,11.79
2017-10-23T09:49:14.230Z,11.78
2017-10-23T09:50:14.209Z,11.90
2017-10-23T09:51:14.186Z,11.93
2017-10-23T09:52:14.153Z,11.93
2017-10-23T09:53:14.127Z,11.97
2017-10-23T09:54:14.102Z,12.00
2017-10-23T09:55:14.079Z,11.94
2017-10-23T09:56:14.048Z,11.98
2017-10-23T09:57:14.023Z,12.01
2017-10-23T09:58:14.005Z,12.04
2017-10-23T09:59:14.224Z,12.01
2017-10-23T10:00:13.951Z,12.04
2017-10-23T10:01:13.926Z,12.05
2017-10-23T10:02:13.894Z,12.07
2017-10-23T10:03:13.873Z,12.04
2017-10-23T10:04:13.858Z,12.07
2017-10-23T10:05:13.827Z,12.11
2017-10-23T10:06:13.796Z,12.04
2017-10-23T10:07:13.770Z,12.08
2017-10-23T10:08:13.750Z,12.12
2017-10-23T10:09:13.715Z,12.05
2017-10-23T10:10:13.703Z,12.15
2017-10-23T10:11:13.678Z,12.13
2017-10-23T10:12:13.638Z,12.11
2017-10-23T10:13:13.625Z,12.11
2017-10-23T10:14:13.595Z,12.05
2017-10-23T10:15:13.570Z,12.08
2017-10-23T10:16:13.547Z,12.12
2017-10-23T10:17:13.523Z,12.13
2017-10-23T10:18:13.493Z,12.11
2017-10-23T10:19:13.468Z,12.04
2017-10-23T10:20:13.448Z,12.08
2017-10-23T10:21:13.421Z,12.08
2017-10-23T10:22:13.395Z,12.08
2017-10-23T10:23:13.365Z,12.05
2017-10-23T10:24:13.344Z,12.15
2017-10-23T10:25:13.312Z,12.05
2017-10-23T10:26:13.291Z,12.07
2017-10-23T10:27:13.270Z,12.07
2017-10-23T10:28:13.235Z,12.12
2017-10-23T10:29:13.215Z,12.05
2017-10-23T10:30:13.187Z,12.08
2017-10-23T10:31:13.163Z,12.13
2017-10-23T10:32:13.154Z,12.11
2017-10-23T10:33:13.109Z,12.16
2017-10-23T10:34:13.092Z,12.07
2017-10-23T10:35:13.057Z,12.07
2017-10-23T10:36:13.040Z,12.05
2017-10-23T10:37:13.018Z,12.03
2017-10-23T10:38:12.996Z,12.05
2017-10-23T10:39:12.961Z,12.01
2017-10-23T10:40:12.938Z,11.94
2017-10-23T10:41:12.909Z,11.85
2017-10-23T10:42:12.882Z,11.87
2017-10-23T10:43:12.862Z,11.78
2017-10-23T10:44:12.836Z,11.82
2017-10-23T10:45:12.804Z,11.78
2017-10-23T10:46:12.787Z,11.87
2017-10-23T10:47:12.755Z,11.81
2017-10-23T10:48:12.731Z,11.78
2017-10-23T10:49:12.708Z,11.82
2017-10-23T10:50:12.680Z,11.93
2017-10-23T10:51:12.658Z,11.97
2017-10-23T10:52:12.631Z,11.88
2017-10-23T10:53:12.610Z,12.00
2017-10-23T10:54:12.580Z,12.01
2017-10-23T10:55:12.550Z,12.04
2017-10-23T10:56:12.522Z,12.05
2017-10-23T10:57:12.500Z,12.07
2017-10-23T10:58:12.483Z,12.11
2017-10-23T10:59:12.453Z,12.05
2017-10-23T11:00:12.423Z,12.03
2017-10-23T11:01:12.400Z,12.05
2017-10-23T11:02:12.376Z,12.08
2017-10-23T11:03:12.350Z,12.12
2017-10-23T11:04:12.328Z,12.07
2017-10-23T11:05:12.307Z,12.11
2017-10-23T11:06:12.277Z,12.19
2017-10-23T11:07:12.245Z,12.21
2017-10-23T11:08:12.234Z,12.29
2017-10-23T11:09:12.196Z,12.30
2017-10-23T11:10:12.174Z,12.41
2017-10-23T11:11:12.158Z,12.49
2017-10-23T11:12:12.118Z,12.54
2017-10-23T11:13:12.098Z,12.46
2017-10-23T11:14:12.078Z,12.54
2017-10-23T11:15:12.045Z,12.51
2017-10-23T11:16:12.018Z,12.48
2017-10-23T11:17:11.995Z,12.49
2017-10-23T11:18:11.977Z,12.55
2017-10-23T11:19:11.943Z,12.48
2017-10-23T11:20:11.925Z,12.41
2017-10-23T11:21:11.903Z,12.51
2017-10-23T11:22:11.878Z,12.56
2017-10-23T11:23:11.848Z,12.49
2017-10-23T11:24:11.829Z,12.49
2017-10-23T11:25:11.809Z,12.51
2017-10-23T11:26:11.778Z,12.46
2017-10-23T11:27:11.762Z,12.51
2017-10-23T11:28:11.730Z,12.46
2017-10-23T11:29:11.699Z,12.44
2017-10-23T11:30:11.682Z,12.58
2017-10-23T11:31:11.654Z,12.52
2017-10-23T11:32:11.627Z,12.46
2017-10-23T11:33:11.598Z,12.41
2017-10-23T11:34:11.572Z,12.38
2017-10-23T11:35:11.552Z,12.41
2017-10-23T11:36:11.530Z,12.40
2017-10-23T11:37:11.517Z,12.40
2017-10-23T11:38:11.482Z,12.48
2017-10-23T11:39:11.484Z,12.43
2017-10-23T11:40:11.426Z,12.41
2017-10-23T11:41:11.399Z,12.37
2017-10-23T11:42:11.384Z,12.40
2017-10-23T11:43:11.353Z,12.34
2017-10-23T11:44:11.340Z,12.29
2017-10-23T11:45:11.331Z,12.26
2017-10-23T11:46:11.282Z,12.30
2017-10-23T11:47:11.259Z,12.38
2017-10-23T11:48:11.239Z,12.37
2017-10-23T11:49:11.222Z,12.38
2017-10-23T11:50:11.185Z,12.33
2017-10-23T11:51:11.464Z,12.30
2017-10-23T11:52:11.133Z,12.31
2017-10-23T11:53:11.108Z,12.30
2017-10-23T11:54:11.086Z,12.38
2017-10-23T11:55:11.064Z,12.33
2017-10-23T11:56:11.028Z,12.37
2017-10-23T11:57:11.010Z,12.38
2017-10-23T11:58:10.981Z,12.29
2017-10-23T11:59:10.962Z,12.26
2017-10-23T12:00:10.942Z,12.26
2017-10-23T12:01:10.924Z,12.38
2017-10-23T12:02:10.884Z,12.22
2017-10-23T12:03:10.860Z,12.25
2017-10-23T12:04:10.839Z,12.26
2017-10-23T12:05:10.809Z,12.22
2017-10-23T12:06:10.787Z,12.19
2017-10-23T12:07:10.768Z,12.19
2017-10-23T12:08:10.735Z,12.05
2017-10-23T12:09:10.711Z,12.13
2017-10-23T12:10:10.693Z,12.11
2017-10-23T12:11:10.670Z,12.11
2017-10-23T12:12:10.645Z,12.11
2017-10-23T12:13:10.614Z,12.11
2017-10-23T12:14:10.585Z,12.08
2017-10-23T12:15:10.560Z,12.15
2017-10-23T12:16:10.539Z,12.07
2017-10-23T12:17:10.516Z,12.11
2017-10-23T12:18:10.491Z,12.11
2017-10-23T12:19:10.463Z,12.07
2017-10-23T12:20:10.442Z,12.04
2017-10-23T12:21:10.416Z,12.07
2017-10-23T12:22:10.390Z,12.12
2017-10-23T12:23:10.362Z,12.11
2017-10-23T12:24:10.332Z,12.01
2017-10-23T12:25:10.307Z,12.03
2017-10-23T12:26:10.295Z,12.01
2017-10-23T12:27:10.264Z,12.00
2017-10-23T12:28:10.234Z,11.93
2017-10-23T12:29:10.207Z,11.87
2017-10-23T12:30:10.184Z,11.96
2017-10-23T12:31:10.161Z,11.98
2017-10-23T12:32:10.136Z,11.97
2017-10-23T12:33:10.114Z,11.96
2017-10-23T12:34:10.092Z,11.94
2017-10-23T12:35:10.065Z,11.96
2017-10-23T12:36:10.053Z,11.96
2017-10-23T12:37:10.016Z,11.98
2017-10-23T12:38:09.990Z,12.00
2017-10-23T12:39:09.970Z,11.94
2017-10-23T12:40:09.931Z,11.90
2017-10-23T12:41:09.902Z,11.98
2017-10-23T12:42:09.884Z,11.96
2017-10-23T12:43:09.856Z,11.82
2017-10-23T12:44:09.827Z,11.93
2017-10-23T12:45:09.810Z,11.97
2017-10-23T12:46:09.784Z,11.98
2017-10-23T12:47:09.755Z,11.85
2017-10-23T12:48:09.735Z,11.85
2017-10-23T12:49:09.711Z,11.88
2017-10-23T12:50:09.685Z,11.97
2017-10-23T12:51:09.659Z,11.87
2017-10-23T12:52:09.635Z,11.81